Moline, Kansas
Current Conditions -  °F | °C
As of 7:35 PM on Friday 31 Oct 2014 (Local Time) from KIDP Reporting Station
Clear Clear  
Wind Chill:   Ceiling: Unl
Heat Index:   Visibility: 10mi
Dew Point: -6°   Wind: 6mph
Humidity: 52%   Direction: 360°N
Pressure: 30.43"   Gusts: NA
Location:  37.36°N, 96.3°W
Report Text: KIDP 010035Z AUTO 36005KT 10SM CLR 03/M06 A3043 RMK AO2
Loading
Personal Weather Stations






























Interactive Weather Map
Tropical Storm Tracking
New forecast layout! Learn more

10-Day Weather Forecast

Advertisements
Track Severe Weather on mobile